Greta — WDF3298 — position and weather

sailwx.info

Track history (hours):
 
Tides and Currents Weather Stations Pressure Air Temp Water Temp Dewpoint Dewpoint Depression Visibility Wind Speed Wind Dir Waves Ship Positions

Greta

Owner: General Electric Credit Corporation Of Tennessee, Seattle, WA. More information available from US FCC via Universal Licensing System and Coast Guard Vessel Documentation Center.

Last reported at 2018-Feb-15 17:59 UTC. Time now 2018-Feb-19 01:58 UTC.
Position N 47°32' W 122°20'.

Length 44 m; draft 2 m.

Type: Ship. MMSI: 367438220.

Date/timePositionNaut miles runAvg speedWind from/ knotsBaromVisibWave heightAir tempDewpointWater temp
2018-Feb-15 17:59N 47°32' W 122°20'0 0.0
2018-Feb-15 17:30N 47°32' W 122°20'1 1.4
2018-Feb-15 17:00N 47°33' W 122°20'1 1.9
2018-Feb-15 16:28N 47°34' W 122°21'2 4.4
2018-Feb-15 16:00N 47°35' W 122°22'0 0.3
2018-Feb-15 15:30N 47°35' W 122°22'0 0.1
2018-Feb-15 15:00N 47°35' W 122°22'0 0.0
2018-Feb-15 14:30N 47°35' W 122°22'0 0.0
2018-Feb-15 14:00N 47°35' W 122°22'0 0.0
2018-Feb-15 13:30N 47°35' W 122°22'0 0.0
2018-Feb-15 13:00N 47°35' W 122°22'1 2.0
2018-Feb-15 12:30N 47°36' W 122°23'4 7.3
2018-Feb-15 12:00N 47°39' W 122°27'4 7.8
2018-Feb-15 11:30N 47°43' W 122°28'4 8.2
2018-Feb-15 11:00N 47°47' W 122°27'4 8.5
2018-Feb-15 10:30N 47°51' W 122°29'4 9.0
2018-Feb-15 10:00N 47°55' W 122°31'17 9.7
2018-Feb-15 08:12N 48°10' W 122°46'210.3
2018-Feb-15 08:00N 48°11' W 122°48'5 8.0
2018-Feb-15 07:25N 48°16' W 122°49'4 8.3
2018-Feb-15 06:58N 48°19' W 122°47'4 9.3
2018-Feb-15 06:30N 48°23' W 122°45'510.0
2018-Feb-15 06:00N 48°28' W 122°45'510.8
2018-Feb-15 05:30N 48°34' W 122°45'510.5
2018-Feb-15 05:00N 48°39' W 122°44'5 9.5
2018-Feb-15 04:30N 48°44' W 122°46'5 9.0
2018-Feb-15 03:55N 48°47' W 122°52'9 9.1
2018-Feb-15 02:55N 48°52' W 123°04'4 9.5
2018-Feb-15 02:30N 48°54' W 123°09'5 9.5
2018-Feb-15 01:58N 48°57' W 123°14'4 8.8
2018-Feb-15 01:29N 49°00' W 123°19'4 8.2
2018-Feb-15 01:00N 49°03' W 123°23'4 7.0
2018-Feb-15 00:29N 49°07' W 123°24'4 7.5
2018-Feb-15 00:00N 49°10' W 123°23'4 7.3
2018-Feb-14 23:30N 49°14' W 123°22'3 6.8
2018-Feb-14 23:00N 49°17' W 123°21'3 6.6
2018-Feb-14 22:30N 49°19' W 123°16'3 6.8
2018-Feb-14 22:00N 49°19' W 123°11'3 5.6
2018-Feb-14 21:30N 49°18' W 123°07'1 1.2
2018-Feb-14 21:00N 49°19' W 123°06'0 0.0
2018-Feb-14 20:30N 49°19' W 123°06'0 0.0
2018-Feb-14 20:00N 49°19' W 123°06'0 0.0
2018-Feb-14 19:30N 49°19' W 123°06'0 0.1
2018-Feb-14 19:00N 49°19' W 123°06'  
2018-Feb-06 21:04N 49°19' W 123°06'0 0.0
2018-Feb-06 21:00N 49°19' W 123°06'  
Track history (hours):
 
Tides and Currents Weather Stations Pressure Air Temp Water Temp Dewpoint Dewpoint Depression Visibility Wind Speed Wind Dir Waves Ship Positions

Greta

Owner: General Electric Credit Corporation Of Tennessee, Seattle, WA. More information available from US FCC via Universal Licensing System and Coast Guard Vessel Documentation Center.

Last reported at 2018-Feb-15 17:59 UTC. Time now 2018-Feb-19 01:58 UTC.
Position N 47°32' W 122°20'.

Length 44 m; draft 2 m.

Type: Ship. MMSI: 367438220.

Date/timePositionNaut miles runAvg speedWind from/ knotsBaromVisibWave heightAir tempDewpointWater temp
2018-Feb-15 17:59N 47°32' W 122°20'0 0.0
2018-Feb-15 17:30N 47°32' W 122°20'1 1.4
2018-Feb-15 17:00N 47°33' W 122°20'1 1.9
2018-Feb-15 16:28N 47°34' W 122°21'2 4.4
2018-Feb-15 16:00N 47°35' W 122°22'0 0.3
2018-Feb-15 15:30N 47°35' W 122°22'0 0.1
2018-Feb-15 15:00N 47°35' W 122°22'0 0.0
2018-Feb-15 14:30N 47°35' W 122°22'0 0.0
2018-Feb-15 14:00N 47°35' W 122°22'0 0.0
2018-Feb-15 13:30N 47°35' W 122°22'0 0.0
2018-Feb-15 13:00N 47°35' W 122°22'1 2.0
2018-Feb-15 12:30N 47°36' W 122°23'4 7.3
2018-Feb-15 12:00N 47°39' W 122°27'4 7.8
2018-Feb-15 11:30N 47°43' W 122°28'4 8.2
2018-Feb-15 11:00N 47°47' W 122°27'4 8.5
2018-Feb-15 10:30N 47°51' W 122°29'4 9.0
2018-Feb-15 10:00N 47°55' W 122°31'17 9.7
2018-Feb-15 08:12N 48°10' W 122°46'210.3
2018-Feb-15 08:00N 48°11' W 122°48'5 8.0
2018-Feb-15 07:25N 48°16' W 122°49'4 8.3
2018-Feb-15 06:58N 48°19' W 122°47'4 9.3
2018-Feb-15 06:30N 48°23' W 122°45'510.0
2018-Feb-15 06:00N 48°28' W 122°45'510.8
2018-Feb-15 05:30N 48°34' W 122°45'510.5
2018-Feb-15 05:00N 48°39' W 122°44'5 9.5
2018-Feb-15 04:30N 48°44' W 122°46'5 9.0
2018-Feb-15 03:55N 48°47' W 122°52'9 9.1
2018-Feb-15 02:55N 48°52' W 123°04'4 9.5
2018-Feb-15 02:30N 48°54' W 123°09'5 9.5
2018-Feb-15 01:58N 48°57' W 123°14'4 8.8
2018-Feb-15 01:29N 49°00' W 123°19'4 8.2
2018-Feb-15 01:00N 49°03' W 123°23'4 7.0
2018-Feb-15 00:29N 49°07' W 123°24'4 7.5
2018-Feb-15 00:00N 49°10' W 123°23'4 7.3
2018-Feb-14 23:30N 49°14' W 123°22'3 6.8
2018-Feb-14 23:00N 49°17' W 123°21'3 6.6
2018-Feb-14 22:30N 49°19' W 123°16'3 6.8
2018-Feb-14 22:00N 49°19' W 123°11'3 5.6
2018-Feb-14 21:30N 49°18' W 123°07'1 1.2
2018-Feb-14 21:00N 49°19' W 123°06'0 0.0
2018-Feb-14 20:30N 49°19' W 123°06'0 0.0
2018-Feb-14 20:00N 49°19' W 123°06'0 0.0
2018-Feb-14 19:30N 49°19' W 123°06'0 0.1
2018-Feb-14 19:00N 49°19' W 123°06'  
2018-Feb-06 21:04N 49°19' W 123°06'0 0.0
2018-Feb-06 21:00N 49°19' W 123°06'  

Dump ship's entire track history